Time;durP1;ratioP1;P1;durP2;ratioP2;P2;SDS_P1;SDS_P2;PMS_P1;PMS_P2;Temp;Humidity;BMP_temperature;BMP_pressure;BME280_temperature;BME280_humidity;BME280_pressure;Samples;Min_cycle;Max_cycle;Signal;HPM_P1;HPM_P2
2021/07/09 00:02:46;;;;;;;3.55;2.15;;;;;;;11.39;86.82;91228.81;4992945;28;20425;-86
2021/07/09 00:05:26;;;;;;;5.03;2.22;;;;;;;11.31;85.88;91232.28;4961640;28;20117;-87
2021/07/09 00:08:08;;;;;;;3.25;2.45;;;;;;;11.34;85.80;91226.41;4992282;28;20438;-86
2021/07/09 00:10:46;;;;;;;5.40;3.40;;;;;;;11.22;86.59;91234.22;4992061;28;20038;-86
2021/07/09 00:13:28;;;;;;;6.15;3.30;;;;;;;11.13;86.54;91236.13;4993834;28;20128;-86
2021/07/09 00:16:04;;;;;;;4.90;3.03;;;;;;;11.19;86.88;91229.63;4977679;28;20040;-87
2021/07/09 00:18:37;;;;;;;5.35;2.90;;;;;;;11.23;86.07;91225.28;4976820;28;20026;-87
2021/07/09 00:21:11;;;;;;;5.05;3.17;;;;;;;11.32;84.61;91222.59;4960885;28;20487;-87
2021/07/09 00:23:49;;;;;;;5.38;3.78;;;;;;;11.05;87.16;91223.94;4976819;28;20113;-86
2021/07/09 00:26:23;;;;;;;7.13;3.45;;;;;;;11.04;87.00;91217.97;5007250;28;20068;-87
2021/07/09 00:29:03;;;;;;;7.05;3.67;;;;;;;11.15;85.76;91229.53;5012699;28;20026;-86
2021/07/09 00:31:38;;;;;;;5.10;3.30;;;;;;;11.16;86.06;91230.28;4998281;28;20026;-87
2021/07/09 00:34:19;;;;;;;7.15;3.60;;;;;;;10.93;86.09;91214.25;4992660;28;20030;-86
2021/07/09 00:36:57;;;;;;;10.65;4.50;;;;;;;10.87;87.11;91218.91;4977220;28;20097;-87
2021/07/09 00:39:38;;;;;;;8.93;4.18;;;;;;;10.91;86.18;91222.38;4960812;28;20026;-87
2021/07/09 00:42:16;;;;;;;5.53;4.10;;;;;;;10.90;86.17;91218.25;4992429;28;20076;-83
2021/07/09 00:44:55;;;;;;;7.63;3.90;;;;;;;10.89;87.02;91216.75;4977434;28;20027;-86
2021/07/09 00:47:32;;;;;;;6.03;4.13;;;;;;;10.95;85.61;91214.69;4991984;28;20049;-87
2021/07/09 00:50:08;;;;;;;6.22;4.13;;;;;;;10.85;86.55;91209.88;4992766;28;20034;-87
2021/07/09 00:52:46;;;;;;;8.07;4.28;;;;;;;10.83;86.33;91212.81;4975884;28;20030;-87
2021/07/09 00:55:25;;;;;;;6.20;3.78;;;;;;;10.79;87.34;91206.72;4992538;28;20499;-87
2021/07/09 00:58:06;;;;;;;8.45;4.43;;;;;;;10.77;87.42;91212.25;4976604;28;20113;-83
2021/07/09 01:00:46;;;;;;;7.38;4.18;;;;;;;10.81;86.69;91214.22;4992047;28;20018;-87
2021/07/09 01:03:25;;;;;;;7.78;4.30;;;;;;;10.83;87.35;91225.84;4977129;28;20030;-86
2021/07/09 01:06:00;;;;;;;10.10;4.05;;;;;;;10.82;87.28;91231.41;4976465;28;20105;-86
2021/07/09 01:08:38;;;;;;;7.07;4.40;;;;;;;10.75;87.56;91221.50;4991829;28;20026;-86
2021/07/09 01:11:19;;;;;;;8.65;4.40;;;;;;;10.83;87.10;91231.06;4974457;28;20056;-86
2021/07/09 01:13:57;;;;;;;7.28;4.55;;;;;;;11.00;85.46;91233.50;5007546;28;20109;-85
2021/07/09 01:16:42;;;;;;;6.57;4.13;;;;;;;10.86;86.70;91217.38;4991230;28;20061;-86
2021/07/09 01:19:23;;;;;;;8.73;4.55;;;;;;;10.89;86.50;91231.63;4992874;28;20026;-86
2021/07/09 01:21:55;;;;;;;9.32;4.80;;;;;;;10.86;87.00;91238.25;4976446;28;20042;-86
2021/07/09 01:24:31;;;;;;;7.60;4.30;;;;;;;10.77;87.37;91234.94;4975802;28;20026;-84
2021/07/09 01:27:09;;;;;;;7.65;4.13;;;;;;;10.82;88.17;91236.59;4972566;28;20026;-87
2021/07/09 01:29:47;;;;;;;8.32;4.68;;;;;;;10.88;86.82;91238.66;4980623;28;20066;-87
2021/07/09 01:32:22;;;;;;;7.22;4.50;;;;;;;10.92;87.18;91239.56;5007404;28;20022;-86
2021/07/09 01:35:02;;;;;;;7.50;5.18;;;;;;;10.90;87.61;91239.13;4991754;28;20080;-86
2021/07/09 01:37:39;;;;;;;10.13;5.50;;;;;;;10.96;86.05;91243.06;4986463;28;20030;-86
2021/07/09 01:40:19;;;;;;;8.30;4.80;;;;;;;10.97;86.26;91236.00;4971938;28;20022;-86
2021/07/09 01:42:57;;;;;;;8.15;4.68;;;;;;;10.92;86.97;91236.97;4971616;28;20423;-86
2021/07/09 01:45:38;;;;;;;11.13;5.10;;;;;;;10.92;87.20;91247.41;4972197;28;20027;-87
2021/07/09 01:48:21;;;;;;;9.48;5.40;;;;;;;10.92;86.80;91246.63;4987077;28;20022;-87
2021/07/09 01:50:58;;;;;;;10.82;5.90;;;;;;;10.94;86.77;91250.44;4975663;28;20026;-84
2021/07/09 01:53:42;;;;;;;8.32;5.15;;;;;;;11.04;86.16;91249.28;4990950;28;20056;-87
2021/07/09 01:56:19;;;;;;;7.60;5.10;;;;;;;10.98;86.63;91240.88;4976523;28;20544;-85
2021/07/09 01:58:58;;;;;;;8.15;5.30;;;;;;;10.95;87.05;91246.75;4991339;28;20393;-87
2021/07/09 02:01:37;;;;;;;8.75;5.40;;;;;;;11.12;86.79;91255.47;4975864;28;20118;-83
2021/07/09 02:04:09;;;;;;;9.88;5.32;;;;;;;11.06;86.21;91259.38;4992419;28;20026;-86
2021/07/09 02:06:47;;;;;;;12.40;5.18;;;;;;;10.97;87.26;91247.19;4991486;28;20058;-87
2021/07/09 02:09:21;;;;;;;7.53;5.03;;;;;;;10.98;87.74;91245.34;4991201;28;20037;-85
2021/07/09 02:11:56;;;;;;;7.72;4.50;;;;;;;10.94;87.89;91249.66;5006537;28;20026;-87
2021/07/09 02:14:32;;;;;;;7.47;5.05;;;;;;;10.98;87.17;91250.56;4991879;28;20030;-86
2021/07/09 02:17:12;;;;;;;9.07;4.65;;;;;;;10.97;87.01;91241.97;4991748;28;20402;-87
2021/07/09 02:19:48;;;;;;;7.07;4.63;;;;;;;11.05;86.75;91244.81;4991006;28;20019;-85
2021/07/09 02:22:28;;;;;;;9.25;5.10;;;;;;;11.04;87.14;91248.50;4976732;28;20034;-87
2021/07/09 02:25:11;;;;;;;7.82;4.75;;;;;;;10.96;87.71;91244.91;4995863;28;20019;-83
2021/07/09 02:27:49;;;;;;;7.27;4.20;;;;;;;11.03;87.33;91252.97;4979812;28;20023;-87
2021/07/09 02:30:23;;;;;;;8.75;4.30;;;;;;;10.94;88.23;91257.50;4979167;28;20030;-87
2021/07/09 02:33:03;;;;;;;5.93;4.28;;;;;;;10.90;87.93;91249.56;4995287;28;20041;-87
2021/07/09 02:35:32;;;;;;;7.32;4.00;;;;;;;11.00;87.13;91249.16;4979655;28;20538;-86
2021/07/09 02:38:16;;;;;;;6.63;4.30;;;;;;;10.92;87.51;91250.00;4994295;28;20490;-87
2021/07/09 02:40:53;;;;;;;8.25;4.10;;;;;;;11.01;86.39;91245.47;5010279;28;20023;-86
2021/07/09 02:43:26;;;;;;;5.97;4.25;;;;;;;10.98;86.86;91251.31;5009887;28;20105;-88
2021/07/09 02:46:12;;;;;;;7.50;4.45;;;;;;;10.84;87.63;91244.84;4993691;28;20101;-88
2021/07/09 02:48:49;;;;;;;7.00;4.32;;;;;;;10.87;87.40;91244.97;4994701;28;20026;-85
2021/07/09 02:51:31;;;;;;;11.15;4.68;;;;;;;10.82;87.72;91247.78;5012128;23;20881;-86
2021/07/09 02:54:13;;;;;;;9.20;4.00;;;;;;;10.89;86.35;91247.28;5014356;28;20037;-86
2021/07/09 02:56:53;;;;;;;7.93;4.45;;;;;;;10.97;86.21;91244.56;5014473;28;20068;-87
2021/07/09 02:59:31;;;;;;;7.50;4.32;;;;;;;10.77;86.95;91250.59;5013946;28;20026;-86
2021/07/09 03:02:10;;;;;;;7.03;4.10;;;;;;;10.88;85.96;91254.31;4995417;28;20030;-86
2021/07/09 03:04:44;;;;;;;7.97;4.13;;;;;;;10.96;85.91;91247.53;4994433;28;20022;-84
2021/07/09 03:07:19;;;;;;;8.70;3.97;;;;;;;10.82;86.31;91253.00;4993961;28;20026;-85
2021/07/09 03:09:55;;;;;;;9.50;4.00;;;;;;;10.84;85.63;91245.63;4993803;28;20033;-85
2021/07/09 03:12:34;;;;;;;5.85;3.50;;;;;;;10.78;85.12;91252.13;4994546;28;20030;-85
2021/07/09 03:15:17;;;;;;;6.65;3.72;;;;;;;10.76;86.48;91249.81;5010887;28;20057;-85
2021/07/09 03:17:55;;;;;;;9.63;3.70;;;;;;;10.70;86.37;91255.56;4994349;28;20101;-85
2021/07/09 03:20:34;;;;;;;7.32;3.90;;;;;;;10.66;86.64;91252.81;4994213;28;20026;-85
2021/07/09 03:23:14;;;;;;;6.88;3.80;;;;;;;10.71;85.94;91254.50;4978680;28;20030;-85
2021/07/09 03:25:51;;;;;;;7.57;3.65;;;;;;;10.65;86.28;91258.38;5006746;28;20053;-85
2021/07/09 03:28:23;;;;;;;8.27;4.00;;;;;;;10.61;86.87;91257.50;4958405;28;20408;-85
2021/07/09 03:30:59;;;;;;;6.05;3.53;;;;;;;10.66;85.84;91257.28;4973905;28;20026;-85
2021/07/09 03:33:37;;;;;;;7.75;3.97;;;;;;;10.46;87.45;91256.97;4973598;28;20031;-87
2021/07/09 03:36:18;;;;;;;5.78;3.58;;;;;;;10.77;85.12;91255.78;4975679;28;20030;-85
2021/07/09 03:38:57;;;;;;;5.00;3.22;;;;;;;10.50;86.74;91257.88;4994074;28;20034;-85
2021/07/09 03:41:42;;;;;;;4.68;3.47;;;;;;;10.51;86.61;91254.16;5010230;28;20490;-85
2021/07/09 03:44:18;;;;;;;8.05;3.72;;;;;;;10.55;86.19;91249.09;4994050;28;20022;-85
2021/07/09 03:46:54;;;;;;;6.75;3.50;;;;;;;10.53;86.26;91246.06;5010794;28;20402;-85
2021/07/09 03:49:30;;;;;;;5.22;3.58;;;;;;;10.42;86.84;91250.84;5010399;28;20030;-86
2021/07/09 03:52:05;;;;;;;4.60;3.58;;;;;;;10.46;85.95;91249.16;5009865;28;20390;-85
2021/07/09 03:54:45;;;;;;;6.55;3.67;;;;;;;10.34;86.84;91246.47;4993818;28;20038;-85
2021/07/09 03:57:24;;;;;;;6.47;3.55;;;;;;;10.39;86.29;91250.72;5009929;28;20026;-84
2021/07/09 04:00:02;;;;;;;5.65;3.55;;;;;;;10.30;86.53;91245.59;5009697;28;20026;-85
2021/07/09 04:02:40;;;;;;;5.53;3.50;;;;;;;10.25;86.51;91246.56;4988322;28;20435;-86
2021/07/09 04:05:19;;;;;;;6.55;3.63;;;;;;;10.24;86.20;91244.97;4974913;28;20027;-85
2021/07/09 04:07:55;;;;;;;7.60;3.38;;;;;;;10.14;86.81;91249.81;4959054;28;20023;-85
2021/07/09 04:10:35;;;;;;;6.82;3.58;;;;;;;10.13;86.97;91253.50;4974224;28;20023;-85
2021/07/09 04:13:15;;;;;;;7.25;4.05;;;;;;;10.06;87.28;91259.97;4958947;28;20031;-85
2021/07/09 04:15:54;;;;;;;5.28;3.35;;;;;;;10.03;87.23;91255.41;4989862;28;20026;-85
2021/07/09 04:18:31;;;;;;;9.38;3.35;;;;;;;9.99;87.35;91259.69;4973865;28;20525;-85
2021/07/09 04:21:07;;;;;;;7.22;3.45;;;;;;;9.96;87.39;91262.16;4973632;28;20026;-85
2021/07/09 04:23:40;;;;;;;6.60;3.40;;;;;;;9.93;87.62;91263.56;4989925;28;20113;-85
2021/07/09 04:26:17;;;;;;;8.38;4.00;;;;;;;9.95;88.05;91269.22;4983183;28;20379;-85
2021/07/09 04:28:58;;;;;;;6.50;4.20;;;;;;;10.00;87.94;91274.25;4973677;28;20034;-85
2021/07/09 04:31:31;;;;;;;4.68;3.50;;;;;;;10.00;87.84;91273.47;4996603;28;20031;-85
2021/07/09 04:34:10;;;;;;;6.85;3.75;;;;;;;9.95;87.50;91279.63;4992548;28;20546;-85
2021/07/09 04:36:49;;;;;;;7.90;3.63;;;;;;;9.91;87.95;91273.53;4957736;28;20030;-87
2021/07/09 04:39:26;;;;;;;7.55;3.65;;;;;;;9.89;87.89;91273.06;4973605;28;20109;-85
2021/07/09 04:42:06;;;;;;;5.88;3.38;;;;;;;9.85;88.16;91272.19;4973864;28;20105;-85
2021/07/09 04:44:47;;;;;;;6.50;3.63;;;;;;;9.92;87.65;91269.84;4988685;28;20027;-86
2021/07/09 04:47:22;;;;;;;4.90;3.50;;;;;;;9.78;88.23;91270.06;4988685;28;20030;-85
2021/07/09 04:49:55;;;;;;;4.82;3.78;;;;;;;9.86;88.75;91270.34;4964052;28;20427;-85
2021/07/09 04:52:33;;;;;;;4.97;3.70;;;;;;;9.91;88.36;91270.94;4974272;28;20042;-85
2021/07/09 04:55:16;;;;;;;6.60;4.18;;;;;;;9.92;88.47;91277.66;4942298;28;20030;-86
2021/07/09 04:57:51;;;;;;;9.80;4.30;;;;;;;9.96;88.39;91280.38;4973750;28;20062;-85
2021/07/09 05:00:25;;;;;;;5.18;3.92;;;;;;;10.05;88.16;91281.13;4957414;28;20019;-86
2021/07/09 05:03:01;;;;;;;9.48;4.13;;;;;;;10.00;88.22;91287.28;4973359;28;20054;-85
2021/07/09 05:05:40;;;;;;;7.85;3.83;;;;;;;10.11;87.81;91282.47;4973241;28;20030;-86
2021/07/09 05:08:18;;;;;;;5.70;3.97;;;;;;;10.11;87.91;91286.91;4957407;28;20486;-85
2021/07/09 05:10:55;;;;;;;4.85;3.60;;;;;;;10.20;88.01;91285.00;4972244;28;20113;-85
2021/07/09 05:13:42;;;;;;;6.18;3.75;;;;;;;10.28;87.26;91281.59;4976966;28;20110;-85
2021/07/09 05:16:18;;;;;;;6.97;3.72;;;;;;;10.23;87.25;91285.13;4994384;28;20105;-85
2021/07/09 05:18:57;;;;;;;5.28;3.88;;;;;;;10.20;87.42;91290.97;4960619;28;20030;-87
2021/07/09 05:21:25;;;;;;;4.93;3.55;;;;;;;10.33;87.02;91284.03;5007158;28;20534;-86
2021/07/09 05:24:06;;;;;;;4.72;3.60;;;;;;;10.39;86.32;91295.81;4992492;28;20025;-85
2021/07/09 05:26:47;;;;;;;6.50;4.10;;;;;;;10.43;86.33;91294.09;4987579;28;20014;-88
2021/07/09 05:29:30;;;;;;;6.03;4.03;;;;;;;10.46;87.03;91301.28;4995133;28;20108;-85
2021/07/09 05:32:07;;;;;;;8.45;4.28;;;;;;;10.54;86.25;91297.09;5007544;28;20069;-85
2021/07/09 05:34:42;;;;;;;5.45;3.95;;;;;;;10.72;84.71;91289.91;4972460;28;20035;-86
2021/07/09 05:37:17;;;;;;;11.25;4.35;;;;;;;10.74;85.60;91292.94;4956279;28;20030;-85
2021/07/09 05:39:55;;;;;;;6.57;4.22;;;;;;;10.82;84.39;91291.34;4987860;28;20104;-86
2021/07/09 05:42:32;;;;;;;7.63;4.07;;;;;;;10.83;85.36;91292.88;4988168;28;20450;-85
2021/07/09 05:45:06;;;;;;;9.35;4.53;;;;;;;10.93;85.18;91297.69;4989592;28;20034;-85
2021/07/09 05:47:40;;;;;;;8.68;3.70;;;;;;;11.08;85.09;91296.34;4974113;28;20030;-85
2021/07/09 05:50:12;;;;;;;9.18;4.50;;;;;;;11.17;85.40;91299.63;4972923;28;20023;-86
2021/07/09 05:52:48;;;;;;;8.23;4.22;;;;;;;11.29;85.39;91302.28;4988768;28;20035;-86
2021/07/09 05:55:32;;;;;;;7.88;4.45;;;;;;;11.34;85.39;91309.91;4974238;28;20465;-86
2021/07/09 05:58:06;;;;;;;6.47;4.20;;;;;;;11.40;82.98;91308.59;4972451;28;20026;-86
2021/07/09 06:00:35;;;;;;;5.65;3.92;;;;;;;11.51;84.39;91313.41;4978380;28;20265;-85
2021/07/09 06:03:01;;;;;;;5.50;3.53;;;;;;;11.46;81.99;91312.53;4956807;28;20065;-85
2021/07/09 06:05:29;;;;;;;7.15;3.80;;;;;;;11.54;81.79;91316.13;4956449;28;20023;-85
2021/07/09 06:07:55;;;;;;;6.85;4.20;;;;;;;11.62;82.67;91314.50;4971845;28;20490;-85
2021/07/09 06:10:26;;;;;;;6.45;3.67;;;;;;;11.69;81.19;91318.09;4957434;28;20054;-85
2021/07/09 06:13:03;;;;;;;10.02;4.05;;;;;;;11.78;80.92;91323.25;4972745;28;20549;-85
2021/07/09 06:15:30;;;;;;;6.55;3.90;;;;;;;11.84;83.21;91316.00;4959901;28;20459;-85
2021/07/09 06:17:57;;;;;;;7.15;3.35;;;;;;;11.79;80.24;91318.78;5010143;28;20030;-87
2021/07/09 06:20:23;;;;;;;8.43;3.60;;;;;;;11.73;81.85;91326.84;4977245;28;20049;-86
2021/07/09 06:22:50;;;;;;;6.68;3.78;;;;;;;11.82;81.63;91324.13;4991435;28;20418;-87
2021/07/09 06:25:21;;;;;;;6.22;3.58;;;;;;;11.98;80.15;91321.69;4992461;28;20034;-86
2021/07/09 06:27:47;;;;;;;7.78;3.80;;;;;;;11.92;80.35;91322.97;4990163;28;20014;-86
2021/07/09 06:30:16;;;;;;;4.75;3.45;;;;;;;12.08;78.95;91328.28;4991687;28;20032;-86
2021/07/09 06:32:46;;;;;;;8.10;3.88;;;;;;;12.05;80.03;91331.56;4991836;28;20037;-86
2021/07/09 06:35:12;;;;;;;10.63;4.07;;;;;;;12.04;80.65;91330.81;4991690;28;20121;-87
2021/07/09 06:37:44;;;;;;;5.97;3.60;;;;;;;12.01;79.99;91330.69;4991851;28;20030;-89
2021/07/09 06:40:11;;;;;;;6.45;3.75;;;;;;;12.16;81.15;91335.28;4990891;28;20014;-89
2021/07/09 06:42:41;;;;;;;5.50;3.40;;;;;;;12.16;79.36;91336.03;4990770;28;20427;-87
2021/07/09 06:45:12;;;;;;;5.80;3.70;;;;;;;12.33;82.12;91332.47;4990722;28;20027;-87
2021/07/09 06:47:41;;;;;;;5.00;3.42;;;;;;;12.40;80.05;91337.09;4991392;28;20109;-87
2021/07/09 06:50:12;;;;;;;7.90;4.00;;;;;;;12.60;80.11;91332.84;5007746;28;20487;-87
2021/07/09 06:52:43;;;;;;;6.70;3.70;;;;;;;12.65;79.12;91343.09;4988172;28;20061;-86
2021/07/09 06:55:13;;;;;;;4.75;3.20;;;;;;;12.72;75.90;91335.44;4956035;28;20030;-88
2021/07/09 06:57:46;;;;;;;6.90;3.53;;;;;;;12.78;75.67;91341.19;4971878;28;20062;-88
2021/07/09 07:00:18;;;;;;;10.63;3.47;;;;;;;12.89;77.69;91337.78;4984464;28;20027;-87
2021/07/09 07:02:48;;;;;;;9.30;3.38;;;;;;;12.89;75.51;91340.41;4991106;28;20422;-87
2021/07/09 07:05:14;;;;;;;7.30;3.10;;;;;;;13.05;75.30;91339.72;4991369;28;20045;-87
2021/07/09 07:07:43;;;;;;;8.82;3.25;;;;;;;13.09;75.04;91341.34;4990953;28;20032;-87
2021/07/09 07:10:11;;;;;;;5.82;3.47;;;;;;;13.11;74.28;91339.16;4994133;28;20489;-87
2021/07/09 07:12:45;;;;;;;6.00;3.20;;;;;;;13.13;73.46;91347.41;4994824;28;20038;-84
2021/07/09 07:15:11;;;;;;;5.40;2.78;;;;;;;13.22;71.98;91349.91;5010568;28;20105;-84
2021/07/09 07:17:37;;;;;;;7.60;3.17;;;;;;;13.21;73.43;91348.38;4978328;28;20406;-85
2021/07/09 07:20:08;;;;;;;5.03;3.30;;;;;;;13.24;73.16;91350.34;4996428;28;20077;-86
2021/07/09 07:22:34;;;;;;;6.07;3.15;;;;;;;13.31;74.39;91353.16;4975554;28;20026;-85
2021/07/09 07:24:59;;;;;;;5.40;3.47;;;;;;;13.41;72.17;91351.19;4978573;28;20019;-85
2021/07/09 07:27:29;;;;;;;6.13;3.25;;;;;;;13.42;73.12;91352.69;4994564;28;20037;-85
2021/07/09 07:29:58;;;;;;;5.75;3.40;;;;;;;13.49;74.32;91347.63;4994969;28;20023;-85
2021/07/09 07:32:30;;;;;;;4.88;3.10;;;;;;;13.85;71.47;91344.84;5010283;28;20486;-85
2021/07/09 07:34:57;;;;;;;7.82;3.13;;;;;;;13.95;73.62;91348.03;4991486;28;20026;-85
2021/07/09 07:37:23;;;;;;;6.22;3.38;;;;;;;13.94;72.56;91346.53;4978216;28;20029;-85
2021/07/09 07:39:52;;;;;;;5.40;2.90;;;;;;;13.90;72.07;91350.94;4994596;28;20058;-85
2021/07/09 07:42:25;;;;;;;7.95;3.38;;;;;;;13.60;71.28;91338.97;4996353;28;20030;-85
2021/07/09 07:44:51;;;;;;;4.78;3.03;;;;;;;13.71;70.58;91343.69;4974957;28;20022;-84
2021/07/09 07:47:21;;;;;;;6.63;3.85;;;;;;;13.73;69.92;91341.53;4982785;28;20041;-85
2021/07/09 07:49:47;;;;;;;6.93;3.78;;;;;;;13.93;72.39;91345.78;4977752;28;20027;-84
2021/07/09 07:52:15;;;;;;;6.80;3.08;;;;;;;14.23;71.25;91348.72;4996108;28;20105;-84
2021/07/09 07:54:41;;;;;;;8.55;3.20;;;;;;;14.15;68.40;91348.91;4994670;28;20110;-85
2021/07/09 07:57:08;;;;;;;5.53;3.05;;;;;;;14.15;70.18;91347.03;4993616;28;20023;-84
2021/07/09 07:59:34;;;;;;;7.97;3.22;;;;;;;14.15;70.09;91338.41;4976993;28;20036;-86
2021/07/09 08:02:00;;;;;;;7.63;3.65;;;;;;;14.01;69.16;91346.69;4993375;28;20030;-85
2021/07/09 08:04:26;;;;;;;8.55;3.53;;;;;;;13.76;68.93;91344.22;4966547;28;20050;-85
2021/07/09 08:06:52;;;;;;;6.05;3.60;;;;;;;13.72;69.45;91346.00;5014390;28;20030;-85
2021/07/09 08:09:21;;;;;;;7.32;3.53;;;;;;;13.70;70.87;91337.72;5003730;28;20026;-86
2021/07/09 08:11:52;;;;;;;5.50;3.50;;;;;;;13.75;69.52;91349.81;4993908;28;20031;-86
2021/07/09 08:14:19;;;;;;;6.75;3.22;;;;;;;13.69;70.13;91353.75;4993472;28;20037;-87
2021/07/09 08:16:51;;;;;;;8.02;3.92;;;;;;;13.87;69.78;91358.34;4994600;28;20052;-86
2021/07/09 08:19:19;;;;;;;4.50;3.08;;;;;;;14.18;69.98;91356.84;4995818;28;20495;-86
2021/07/09 08:21:46;;;;;;;7.68;3.40;;;;;;;14.41;69.61;91353.59;4995489;28;20077;-86
2021/07/09 08:24:14;;;;;;;7.07;3.72;;;;;;;14.57;70.10;91349.16;4999602;28;20022;-86
2021/07/09 08:26:42;;;;;;;6.55;3.33;;;;;;;14.69;70.81;91350.88;4996995;28;20030;-87
2021/07/09 08:29:10;;;;;;;7.47;3.47;;;;;;;14.65;69.23;91352.69;4993937;28;20026;-86
2021/07/09 08:31:36;;;;;;;6.47;3.25;;;;;;;14.34;69.81;91359.44;4994965;28;20042;-86
2021/07/09 08:34:02;;;;;;;4.78;3.15;;;;;;;14.18;72.34;91369.19;4961713;28;20684;-86
2021/07/09 08:36:27;;;;;;;5.10;3.50;;;;;;;14.01;70.64;91372.91;4976860;28;20037;-86
2021/07/09 08:38:53;;;;;;;5.65;3.33;;;;;;;13.95;71.22;91374.25;5010019;28;20030;-86
2021/07/09 08:41:19;;;;;;;5.03;3.28;;;;;;;13.85;71.47;91370.25;4993434;28;20046;-86
2021/07/09 08:43:44;;;;;;;5.20;3.38;;;;;;;13.98;69.73;91374.31;4980324;28;20427;-86
2021/07/09 08:46:10;;;;;;;6.15;3.22;;;;;;;13.82;70.99;91376.94;4993692;28;20026;-85
2021/07/09 08:48:38;;;;;;;8.80;3.97;;;;;;;14.05;70.38;91384.97;4994420;28;20399;-86
2021/07/09 08:51:03;;;;;;;5.47;3.85;;;;;;;14.03;70.45;91378.56;4993285;28;20034;-86
2021/07/09 08:53:29;;;;;;;6.18;3.60;;;;;;;14.34;71.80;91375.19;5073275;23;20125;-86
2021/07/09 08:55:54;;;;;;;6.80;4.07;;;;;;;14.57;68.54;91372.75;5016498;28;20034;-87
2021/07/09 08:58:20;;;;;;;12.95;4.47;;;;;;;14.55;69.94;91377.56;5018528;28;20089;-86
2021/07/09 09:00:45;;;;;;;6.97;4.47;;;;;;;14.76;70.65;91375.41;5027281;28;20417;-87
2021/07/09 09:03:14;;;;;;;10.45;5.05;;;;;;;15.01;69.50;91377.81;5016901;28;20026;-87
2021/07/09 09:05:40;;;;;;;12.15;4.30;;;;;;;15.07;67.17;91389.56;4996809;28;20054;-86
2021/07/09 09:08:06;;;;;;;8.80;4.20;;;;;;;15.06;65.98;91382.81;4957448;28;20467;-86
2021/07/09 09:10:31;;;;;;;8.48;4.28;;;;;;;15.29;66.42;91388.88;4974595;28;20023;-85
2021/07/09 09:13:04;;;;;;;9.80;4.50;;;;;;;15.06;65.05;91382.81;4980831;28;20026;-86
2021/07/09 09:15:29;;;;;;;9.63;4.40;;;;;;;15.21;65.42;91389.84;4993359;28;20022;-86
2021/07/09 09:17:54;;;;;;;7.53;3.85;;;;;;;15.06;66.14;91385.44;4959928;28;20029;-85
2021/07/09 09:20:20;;;;;;;7.65;4.03;;;;;;;14.95;66.71;91381.81;4977176;28;20030;-85
2021/07/09 09:22:48;;;;;;;6.95;3.97;;;;;;;14.88;66.89;91398.16;4992889;28;20039;-86
2021/07/09 09:25:18;;;;;;;15.63;3.80;;;;;;;14.90;67.44;91397.81;4993062;28;20026;-86
2021/07/09 09:27:44;;;;;;;5.20;3.53;;;;;;;14.91;66.15;91394.88;4993097;28;20029;-87
2021/07/09 09:30:13;;;;;;;5.20;3.33;;;;;;;14.96;66.53;91399.09;4960522;28;20026;-86
2021/07/09 09:32:48;;;;;;;6.97;3.63;;;;;;;14.95;66.78;91392.31;4960703;28;20030;-84
2021/07/09 09:35:42;;;;;;;5.22;3.60;;;;;;;15.38;64.14;91391.31;4976978;28;20031;-86
2021/07/09 09:38:11;;;;;;;5.50;3.95;;;;;;;15.39;66.19;91399.97;4973624;28;20045;-85
2021/07/09 09:40:40;;;;;;;7.30;3.90;;;;;;;15.84;63.90;91383.59;4960615;28;20046;-86
2021/07/09 09:43:14;;;;;;;4.85;3.45;;;;;;;16.04;66.14;91407.19;4961520;28;20034;-87
2021/07/09 09:45:42;;;;;;;;;;;;;;;15.63;61.63;91397.06;4978542;28;20506;-86
2021/07/09 09:48:10;;;;;;;7.50;3.63;;;;;;;15.99;65.25;91393.22;4979516;28;19921;-87
2021/07/09 09:50:49;;;;;;;6.97;3.35;;;;;;;15.84;63.45;91393.34;4978105;28;20030;-86
2021/07/09 09:53:38;;;;;;;;;;;;;;;15.82;62.88;91398.94;4995366;28;20088;-87
2021/07/09 09:56:05;;;;;;;6.75;3.92;;;;;;;15.65;62.85;91397.44;4993359;28;19910;-86
2021/07/09 09:58:34;;;;;;;5.78;3.45;;;;;;;15.36;62.54;91401.41;4977488;28;20034;-87
2021/07/09 10:01:04;;;;;;;6.25;3.33;;;;;;;15.20;66.58;91401.47;5007634;28;20045;-86
2021/07/09 10:03:31;;;;;;;6.10;3.60;;;;;;;15.13;63.50;91395.31;5026375;28;20045;-89
2021/07/09 10:05:57;;;;;;;7.93;3.95;;;;;;;15.16;63.89;91387.50;5006334;28;20026;-86
2021/07/09 10:08:24;;;;;;;5.30;3.47;;;;;;;15.10;64.26;91396.75;5014714;28;20386;-86
2021/07/09 10:10:50;;;;;;;5.57;3.78;;;;;;;15.27;65.33;91391.09;5013695;28;20087;-86
2021/07/09 10:13:18;;;;;;;6.88;3.85;;;;;;;15.13;65.46;91380.31;5013239;28;20026;-86
2021/07/09 10:15:45;;;;;;;6.82;3.65;;;;;;;15.47;64.21;91378.72;5013890;28;20024;-87
2021/07/09 10:18:12;;;;;;;5.85;3.55;;;;;;;15.78;63.17;91388.34;4997290;28;20081;-86
2021/07/09 10:20:43;;;;;;;8.20;3.83;;;;;;;15.82;63.75;91379.78;4993059;28;20022;-86
2021/07/09 10:23:12;;;;;;;6.32;3.53;;;;;;;16.12;63.43;91380.69;4976770;28;20371;-86
2021/07/09 10:25:38;;;;;;;6.05;3.17;;;;;;;16.39;64.91;91376.22;4993010;28;20025;-88
2021/07/09 10:28:06;;;;;;;5.00;3.20;;;;;;;16.42;61.91;91369.50;4976108;28;20023;-87
2021/07/09 10:30:40;;;;;;;5.07;3.22;;;;;;;16.87;60.62;91378.47;4991715;28;20027;-87
2021/07/09 10:33:31;;;;;;;7.43;3.10;;;;;;;16.96;59.15;91373.69;4976499;28;20376;-89
2021/07/09 10:35:58;;;;;;;3.60;3.10;;;;;;;16.84;60.36;91368.66;5010797;28;20541;-87
2021/07/09 10:38:33;;;;;;;5.80;3.05;;;;;;;16.71;58.31;91360.94;4994731;28;20049;-86
2021/07/09 10:41:17;;;;;;;6.63;3.05;;;;;;;16.41;59.63;91370.63;4992264;28;20038;-90
2021/07/09 10:44:19;;;;;;;5.28;2.90;;;;;;;16.50;56.08;91373.75;5019586;28;20014;-90
2021/07/09 10:46:46;;;;;;;5.90;2.90;;;;;;;16.55;60.14;91373.47;4989162;28;20030;-86
2021/07/09 10:49:36;;;;;;;5.55;2.88;;;;;;;16.56;56.08;91367.09;4965972;28;20037;-87
2021/07/09 10:52:03;;;;;;;4.43;2.80;;;;;;;16.54;57.99;91361.44;4999538;28;20057;-86
2021/07/09 10:54:32;;;;;;;4.53;2.53;;;;;;;16.76;55.66;91375.69;4997882;28;20026;-87
2021/07/09 10:57:17;;;;;;;6.07;2.90;;;;;;;16.84;56.53;91368.66;4997579;28;20030;-87
2021/07/09 11:00:26;;;;;;;3.92;2.40;;;;;;;17.08;55.54;91368.25;5015957;28;20029;-87
2021/07/09 11:03:02;;;;;;;5.10;2.67;;;;;;;17.33;56.40;91362.53;4974561;28;20047;-86
2021/07/09 11:05:51;;;;;;;6.22;2.55;;;;;;;17.59;56.54;91359.06;4976950;28;20031;-87
2021/07/09 11:08:34;;;;;;;4.82;2.90;;;;;;;17.59;55.43;91359.81;4978969;28;20030;-86
2021/07/09 11:11:17;;;;;;;8.82;3.08;;;;;;;17.81;54.90;91365.34;4992879;28;20031;-87
2021/07/09 11:13:48;;;;;;;4.32;3.03;;;;;;;17.81;53.95;91370.59;4978826;28;20450;-86
2021/07/09 11:16:30;;;;;;;5.97;3.00;;;;;;;17.67;56.58;91364.06;4977368;28;20022;-87
2021/07/09 11:19:07;;;;;;;7.75;2.92;;;;;;;17.56;55.54;91363.19;4991445;28;20033;-86
2021/07/09 11:21:35;;;;;;;4.90;2.40;;;;;;;17.60;55.83;91366.63;5004122;28;20486;-85
2021/07/09 11:24:07;;;;;;;6.47;2.83;;;;;;;17.55;56.89;91353.75;5011719;28;20030;-87
2021/07/09 11:26:41;;;;;;;6.22;2.70;;;;;;;17.92;54.07;91355.69;4980862;28;20101;-87
2021/07/09 11:29:18;;;;;;;5.18;2.60;;;;;;;17.77;53.04;91359.28;4978548;28;20397;-87
2021/07/09 11:31:45;;;;;;;14.10;3.20;;;;;;;17.78;53.02;91355.53;5016643;28;20026;-87
2021/07/09 11:34:13;;;;;;;5.50;2.80;;;;;;;17.68;52.16;91346.38;5016058;28;20026;-86
2021/07/09 11:36:54;;;;;;;6.75;2.65;;;;;;;17.77;53.71;91351.38;4994910;28;20030;-87
2021/07/09 11:39:26;;;;;;;7.90;2.70;;;;;;;17.77;54.64;91354.00;4995809;28;20035;-86
2021/07/09 11:42:08;;;;;;;5.13;2.78;;;;;;;17.33;56.94;91354.63;4980211;28;20027;-87
2021/07/09 11:44:40;;;;;;;5.93;2.85;;;;;;;17.44;57.23;91347.59;4981019;28;20057;-87
2021/07/09 11:47:15;;;;;;;6.65;3.03;;;;;;;17.26;57.52;91346.63;4980083;28;20449;-87
2021/07/09 11:49:51;;;;;;;5.00;2.88;;;;;;;16.89;58.51;91349.91;4979780;28;20077;-87
2021/07/09 11:52:28;;;;;;;6.00;2.90;;;;;;;16.60;57.53;91349.50;4998002;28;20375;-86
2021/07/09 11:54:56;;;;;;;5.82;3.00;;;;;;;16.67;60.48;91357.47;4979387;28;20109;-88
2021/07/09 11:57:23;;;;;;;7.43;2.75;;;;;;;16.64;59.65;91352.16;4995621;28;20096;-86
2021/07/09 11:59:57;;;;;;;7.53;2.95;;;;;;;16.55;60.02;91347.16;4967617;28;20410;-87
2021/07/09 12:02:25;;;;;;;5.43;3.17;;;;;;;16.68;60.59;91358.25;5015400;28;20394;-87
2021/07/09 12:05:01;;;;;;;6.15;3.33;;;;;;;16.54;61.06;91350.91;5015573;28;20032;-87
2021/07/09 12:07:40;;;;;;;4.75;3.05;;;;;;;16.66;60.43;91358.59;4999827;28;20222;-87